createdAt,value
2019-06-08T00:01:52.270Z,4.55
2019-06-08T00:04:18.644Z,4.95
2019-06-08T00:06:44.872Z,5.10
2019-06-08T00:09:11.208Z,5.20
2019-06-08T00:11:37.836Z,4.87
2019-06-08T00:14:04.165Z,4.50
2019-06-08T00:16:30.614Z,4.65
2019-06-08T00:18:56.968Z,3.92
2019-06-08T00:21:24.119Z,4.72
2019-06-08T00:23:50.637Z,4.30
2019-06-08T00:26:18.045Z,4.60
2019-06-08T00:28:46.395Z,4.45
2019-06-08T00:31:12.760Z,4.00
2019-06-08T00:33:39.023Z,4.55
2019-06-08T00:36:05.279Z,4.12
2019-06-08T00:38:31.639Z,3.70
2019-06-08T00:40:58.043Z,3.70
2019-06-08T00:43:25.431Z,3.90
2019-06-08T00:45:51.852Z,3.83
2019-06-08T00:48:19.507Z,3.58
2019-06-08T00:50:46.445Z,3.60
2019-06-08T00:53:12.793Z,3.62
2019-06-08T00:55:39.039Z,3.92
2019-06-08T00:58:05.302Z,4.25
2019-06-08T01:00:31.683Z,3.60
2019-06-08T01:02:57.937Z,3.72
2019-06-08T01:05:24.437Z,3.90
2019-06-08T01:07:50.831Z,3.92
2019-06-08T01:10:19.148Z,3.70
2019-06-08T01:12:45.548Z,3.10
2019-06-08T01:15:12.519Z,3.62
2019-06-08T01:17:38.716Z,3.40
2019-06-08T01:20:08.393Z,3.27
2019-06-08T01:22:34.725Z,3.10
2019-06-08T01:25:01.082Z,3.05
2019-06-08T01:27:28.199Z,3.30
2019-06-08T01:29:54.502Z,2.50
2019-06-08T01:32:20.733Z,2.70
2019-06-08T01:34:47.101Z,3.22
2019-06-08T01:37:13.407Z,2.60
2019-06-08T01:39:39.662Z,2.65
2019-06-08T01:42:06.022Z,2.30
2019-06-08T01:44:32.368Z,2.40
2019-06-08T01:46:58.681Z,2.60
2019-06-08T01:49:26.091Z,2.70
2019-06-08T01:51:54.975Z,2.30
2019-06-08T01:54:21.276Z,2.00
2019-06-08T01:56:47.534Z,2.40
2019-06-08T01:59:13.819Z,2.22
2019-06-08T02:01:40.232Z,2.10
2019-06-08T02:04:06.707Z,2.30
2019-06-08T02:06:34.553Z,2.42
2019-06-08T02:09:00.966Z,2.20
2019-06-08T02:11:28.686Z,2.20
2019-06-08T02:13:55.473Z,2.30
2019-06-08T02:16:21.747Z,2.27
2019-06-08T02:18:51.043Z,2.17
2019-06-08T02:21:16.342Z,2.40
2019-06-08T02:23:42.611Z,2.40
2019-06-08T02:26:09.063Z,2.25
2019-06-08T02:28:35.903Z,2.00
2019-06-08T02:31:02.408Z,2.05
2019-06-08T02:33:30.287Z,2.00
2019-06-08T02:35:56.777Z,2.10
2019-06-08T02:38:23.007Z,1.98
2019-06-08T02:40:49.332Z,2.20
2019-06-08T02:43:15.687Z,1.90
2019-06-08T02:45:42.129Z,2.05
2019-06-08T02:48:08.450Z,2.02
2019-06-08T02:50:50.243Z,2.17
2019-06-08T02:53:17.224Z,2.10
2019-06-08T02:55:45.898Z,1.87
2019-06-08T02:58:13.346Z,1.90
2019-06-08T03:00:39.892Z,1.90
2019-06-08T03:03:07.570Z,1.90
2019-06-08T03:05:38.096Z,1.70
2019-06-08T03:08:04.680Z,2.00
2019-06-08T03:10:32.929Z,1.70
2019-06-08T03:13:00.399Z,1.67
2019-06-08T03:15:28.790Z,1.70
2019-06-08T03:17:55.036Z,1.90
2019-06-08T03:20:21.318Z,1.80
2019-06-08T03:22:47.612Z,1.67
2019-06-08T03:25:13.962Z,1.98
2019-06-08T03:27:40.792Z,1.50
2019-06-08T03:30:16.650Z,1.70
2019-06-08T03:32:39.839Z,1.60
2019-06-08T03:35:05.401Z,1.40
2019-06-08T03:37:33.237Z,1.40
2019-06-08T03:39:59.578Z,1.30
2019-06-08T03:42:25.846Z,1.35
2019-06-08T03:44:52.322Z,1.50
2019-06-08T03:47:18.624Z,1.50
2019-06-08T03:49:54.902Z,1.32
2019-06-08T03:52:13.092Z,1.37
2019-06-08T03:54:41.104Z,1.40
2019-06-08T03:57:07.541Z,1.40
2019-06-08T03:59:33.779Z,1.40
2019-06-08T04:02:00.292Z,1.75
2019-06-08T04:04:26.585Z,1.47
2019-06-08T04:06:52.895Z,1.40
2019-06-08T04:09:19.238Z,1.45
2019-06-08T04:11:46.746Z,1.40
2019-06-08T04:14:14.038Z,1.30
2019-06-08T04:16:42.369Z,1.80
2019-06-08T04:19:08.573Z,1.37
2019-06-08T04:21:34.844Z,1.45
2019-06-08T04:24:01.354Z,1.50
2019-06-08T04:26:27.635Z,1.57
2019-06-08T04:28:54.284Z,1.45
2019-06-08T04:31:20.541Z,1.50
2019-06-08T04:33:47.042Z,1.27
2019-06-08T04:36:13.335Z,1.45
2019-06-08T04:38:41.186Z,1.30
2019-06-08T04:41:07.664Z,1.40
2019-06-08T04:43:33.992Z,1.32
2019-06-08T04:46:00.256Z,1.30
2019-06-08T04:48:26.582Z,1.47
2019-06-08T04:50:53.060Z,1.45
2019-06-08T04:53:19.348Z,1.17
2019-06-08T04:55:47.096Z,1.10
2019-06-08T04:58:13.489Z,1.27
2019-06-08T05:00:41.421Z,1.37
2019-06-08T05:03:08.066Z,1.10
2019-06-08T05:05:34.505Z,1.60
2019-06-08T05:08:00.835Z,1.20
2019-06-08T05:10:27.074Z,1.40
2019-06-08T05:12:53.759Z,1.32
2019-06-08T05:15:20.144Z,1.10
2019-06-08T05:17:47.524Z,0.93
2019-06-08T05:20:15.384Z,1.00
2019-06-08T05:22:43.483Z,1.00
2019-06-08T05:25:10.097Z,1.00
2019-06-08T05:27:36.347Z,1.00
2019-06-08T05:30:08.687Z,1.02
2019-06-08T05:32:33.562Z,1.30
2019-06-08T05:34:59.797Z,1.20
2019-06-08T05:37:26.098Z,1.40
2019-06-08T05:39:52.453Z,1.05
2019-06-08T05:42:18.832Z,1.25
2019-06-08T05:44:45.716Z,1.12
2019-06-08T05:47:12.033Z,1.30
2019-06-08T05:49:39.645Z,1.00
2019-06-08T05:52:06.100Z,1.12
2019-06-08T05:54:32.357Z,1.10
2019-06-08T05:56:58.618Z,1.17
2019-06-08T05:59:24.853Z,1.47
2019-06-08T06:01:51.208Z,1.10
2019-06-08T06:04:17.376Z,1.10
2019-06-08T06:06:44.560Z,1.00
2019-06-08T06:09:11.025Z,1.00
2019-06-08T06:11:37.391Z,1.22
2019-06-08T06:14:04.433Z,1.30
2019-06-08T06:16:30.872Z,0.90
2019-06-08T06:18:57.270Z,1.25
2019-06-08T06:21:23.614Z,0.95
2019-06-08T06:23:51.410Z,1.10
2019-06-08T06:26:18.032Z,1.10
2019-06-08T06:28:45.627Z,1.27
2019-06-08T06:31:12.170Z,1.07
2019-06-08T06:33:38.476Z,1.30
2019-06-08T06:36:04.904Z,1.40
2019-06-08T06:38:31.181Z,1.52
2019-06-08T06:40:57.444Z,1.10
2019-06-08T06:43:23.727Z,1.10
2019-06-08T06:45:50.200Z,1.30
2019-06-08T06:48:16.476Z,1.10
2019-06-08T06:50:44.271Z,1.37
2019-06-08T06:53:10.572Z,1.40
2019-06-08T06:55:36.845Z,0.98
2019-06-08T06:58:03.240Z,1.30
2019-06-08T07:00:31.327Z,1.20
2019-06-08T07:02:59.019Z,1.15
2019-06-08T07:05:25.322Z,1.30
2019-06-08T07:07:52.445Z,1.20
2019-06-08T07:10:19.074Z,1.12
2019-06-08T07:12:46.519Z,1.10
2019-06-08T07:15:16.632Z,1.12
2019-06-08T07:17:43.155Z,1.17
2019-06-08T07:20:09.483Z,1.07
2019-06-08T07:22:35.873Z,1.10
2019-06-08T07:25:03.235Z,1.10
2019-06-08T07:27:29.607Z,1.00
2019-06-08T07:29:55.862Z,1.00
2019-06-08T07:32:22.157Z,1.00
2019-06-08T07:34:49.951Z,1.17
2019-06-08T07:37:16.839Z,1.10
2019-06-08T07:39:43.103Z,1.15
2019-06-08T07:42:09.384Z,1.32
2019-06-08T07:44:35.769Z,1.10
2019-06-08T07:47:02.377Z,1.15
2019-06-08T07:49:28.667Z,1.10
2019-06-08T07:52:06.499Z,1.12
2019-06-08T07:54:22.997Z,1.20
2019-06-08T07:56:50.122Z,1.25
2019-06-08T07:59:17.431Z,1.32
2019-06-08T08:01:43.824Z,1.15
2019-06-08T08:04:10.394Z,1.10
2019-06-08T08:06:36.674Z,1.10
2019-06-08T08:09:05.767Z,1.05
2019-06-08T08:11:32.018Z,1.27
2019-06-08T08:13:59.109Z,1.10
2019-06-08T08:16:25.530Z,1.20
2019-06-08T08:18:51.798Z,1.17
2019-06-08T08:21:24.982Z,1.00
2019-06-08T08:23:47.827Z,1.22
2019-06-08T08:26:14.506Z,1.22
2019-06-08T08:28:40.875Z,1.37
2019-06-08T08:31:07.891Z,1.30
2019-06-08T08:33:37.852Z,1.20
2019-06-08T08:36:03.785Z,1.30
2019-06-08T08:38:30.258Z,1.20
2019-06-08T08:41:04.070Z,1.30
2019-06-08T08:43:24.792Z,1.32
2019-06-08T08:45:52.103Z,1.15
2019-06-08T08:48:25.395Z,1.30
2019-06-08T08:50:48.365Z,1.35
2019-06-08T08:53:18.065Z,1.10
2019-06-08T08:55:44.726Z,1.50
2019-06-08T08:58:10.976Z,1.30
2019-06-08T09:00:38.230Z,1.40
2019-06-08T09:03:21.985Z,1.20
2019-06-08T09:05:38.060Z,1.30
2019-06-08T09:08:04.284Z,1.57
2019-06-08T09:10:30.536Z,1.30
2019-06-08T09:13:01.674Z,1.35
2019-06-08T09:15:25.314Z,1.40
2019-06-08T09:17:52.630Z,1.35
2019-06-08T09:20:20.101Z,1.27
2019-06-08T09:22:53.705Z,1.60
2019-06-08T09:25:14.782Z,1.55
2019-06-08T09:27:41.164Z,1.72
2019-06-08T09:30:08.437Z,1.50
2019-06-08T09:32:34.956Z,1.40
2019-06-08T09:35:04.369Z,1.50
2019-06-08T09:37:29.485Z,1.40
2019-06-08T09:39:56.581Z,1.50
2019-06-08T09:42:23.943Z,1.30
2019-06-08T09:44:50.201Z,1.50
2019-06-08T09:47:18.119Z,1.50
2019-06-08T09:49:44.703Z,1.30
2019-06-08T09:52:11.192Z,1.65
2019-06-08T09:54:38.419Z,1.25
2019-06-08T09:57:06.635Z,1.50
2019-06-08T09:59:33.855Z,1.32
2019-06-08T10:02:07.470Z,1.67
2019-06-08T10:04:31.371Z,2.02
2019-06-08T10:06:59.017Z,1.40
2019-06-08T10:09:24.901Z,2.05
2019-06-08T10:11:51.406Z,1.47
2019-06-08T10:14:18.726Z,1.47
2019-06-08T10:16:47.671Z,1.60
2019-06-08T10:19:13.553Z,1.50
2019-06-08T10:21:43.014Z,1.40
2019-06-08T10:24:09.468Z,1.50
2019-06-08T10:26:37.994Z,1.52
2019-06-08T10:29:06.269Z,1.30
2019-06-08T10:31:38.468Z,1.37
2019-06-08T10:34:03.470Z,1.60
2019-06-08T10:36:29.489Z,1.75
2019-06-08T10:38:56.753Z,1.30
2019-06-08T10:41:24.221Z,1.65
2019-06-08T10:43:50.658Z,1.40
2019-06-08T10:46:20.749Z,1.72
2019-06-08T10:48:45.542Z,1.80
2019-06-08T10:51:13.129Z,1.30
2019-06-08T10:53:49.096Z,1.40
2019-06-08T10:56:10.378Z,1.45
2019-06-08T10:58:36.016Z,1.70
2019-06-08T11:01:04.765Z,1.35
2019-06-08T11:03:30.850Z,1.72
2019-06-08T11:06:00.445Z,1.77
2019-06-08T11:08:27.425Z,1.90
2019-06-08T11:10:53.312Z,1.67
2019-06-08T11:13:19.705Z,1.60
2019-06-08T11:15:48.012Z,1.60
2019-06-08T11:18:14.113Z,1.37
2019-06-08T11:20:40.732Z,1.55
2019-06-08T11:23:10.251Z,1.55
2019-06-08T11:25:37.552Z,1.70
2019-06-08T11:28:03.933Z,1.40
2019-06-08T11:30:30.734Z,1.40
2019-06-08T11:32:57.712Z,1.80
2019-06-08T11:35:24.426Z,1.75
2019-06-08T11:37:50.766Z,1.40
2019-06-08T11:40:18.087Z,1.30
2019-06-08T11:42:45.482Z,1.50
2019-06-08T11:45:13.281Z,1.70
2019-06-08T11:47:39.822Z,1.55
2019-06-08T11:50:09.613Z,1.45
2019-06-08T11:52:35.042Z,1.62
2019-06-08T11:55:03.743Z,1.55
2019-06-08T11:57:31.831Z,1.40
2019-06-08T11:59:58.504Z,1.50
2019-06-08T12:02:25.345Z,1.52
2019-06-08T12:04:51.686Z,1.30
2019-06-08T12:07:18.042Z,1.57
2019-06-08T12:09:44.409Z,1.60
2019-06-08T12:12:16.215Z,1.37
2019-06-08T12:14:40.520Z,1.80
2019-06-08T12:17:10.860Z,1.17
2019-06-08T12:19:37.550Z,1.45
2019-06-08T12:22:03.879Z,1.40
2019-06-08T12:24:41.352Z,1.60
2019-06-08T12:27:07.536Z,1.40
2019-06-08T12:29:28.264Z,1.30
2019-06-08T12:31:54.480Z,1.80
2019-06-08T12:34:20.820Z,1.50
2019-06-08T12:36:48.095Z,1.62
2019-06-08T12:39:14.574Z,2.47
2019-06-08T12:41:40.802Z,1.62
2019-06-08T12:44:09.792Z,1.65
2019-06-08T12:46:38.340Z,1.70
2019-06-08T12:49:03.883Z,1.40
2019-06-08T12:51:32.057Z,1.57
2019-06-08T12:54:00.366Z,1.32
2019-06-08T12:56:28.600Z,1.42
2019-06-08T12:58:54.864Z,1.72
2019-06-08T13:01:21.151Z,1.80
2019-06-08T13:03:48.463Z,1.57
2019-06-08T13:06:16.165Z,1.57
2019-06-08T13:08:43.004Z,1.37
2019-06-08T13:11:10.682Z,1.47
2019-06-08T13:13:37.825Z,1.42
2019-06-08T13:16:04.133Z,1.27
2019-06-08T13:18:30.418Z,1.30
2019-06-08T13:20:59.010Z,1.67
2019-06-08T13:23:24.739Z,1.57
2019-06-08T13:25:51.210Z,1.50
2019-06-08T13:28:23.579Z,1.67
2019-06-08T13:30:47.774Z,1.98
2019-06-08T13:33:14.094Z,1.85
2019-06-08T13:35:40.353Z,1.75
2019-06-08T13:38:08.663Z,1.40
2019-06-08T13:40:37.368Z,1.72
2019-06-08T13:43:03.082Z,1.80
2019-06-08T13:45:29.486Z,1.50
2019-06-08T13:47:55.752Z,1.50
2019-06-08T13:50:23.924Z,1.40
2019-06-08T13:52:50.294Z,1.32
2019-06-08T13:55:36.663Z,1.57
2019-06-08T13:57:45.046Z,1.82
2019-06-08T14:00:13.310Z,1.75
2019-06-08T14:02:40.727Z,1.47
2019-06-08T14:05:08.742Z,1.40
2019-06-08T14:07:37.880Z,1.80
2019-06-08T14:10:05.875Z,1.70
2019-06-08T14:12:32.353Z,1.70
2019-06-08T14:14:58.744Z,1.90
2019-06-08T14:17:27.149Z,1.80
2019-06-08T14:19:53.735Z,1.70
2019-06-08T14:22:22.723Z,1.47
2019-06-08T14:24:48.123Z,1.60
2019-06-08T14:27:14.383Z,1.80
2019-06-08T14:29:40.648Z,1.70
2019-06-08T14:32:07.893Z,1.77
2019-06-08T14:34:34.654Z,1.60
2019-06-08T14:37:00.913Z,1.70
2019-06-08T14:39:31.078Z,1.90
2019-06-08T14:41:57.691Z,2.20
2019-06-08T14:44:24.077Z,1.85
2019-06-08T14:46:50.659Z,1.60
2019-06-08T14:49:18.294Z,1.75
2019-06-08T14:51:48.884Z,1.62
2019-06-08T14:54:18.753Z,1.65
2019-06-08T14:56:44.530Z,1.60
2019-06-08T14:59:10.786Z,1.67
2019-06-08T15:01:38.080Z,1.57
2019-06-08T15:04:04.676Z,1.62
2019-06-08T15:06:33.914Z,1.50
2019-06-08T15:08:58.989Z,1.70
2019-06-08T15:11:27.783Z,1.40
2019-06-08T15:13:53.317Z,1.32
2019-06-08T15:16:19.808Z,1.67
2019-06-08T15:18:46.320Z,1.70
2019-06-08T15:21:12.796Z,1.60
2019-06-08T15:23:39.056Z,1.70
2019-06-08T15:26:19.769Z,1.90
2019-06-08T15:28:35.925Z,1.70
2019-06-08T15:31:01.740Z,1.50
2019-06-08T15:33:32.209Z,1.65
2019-06-08T15:35:57.509Z,1.50
2019-06-08T15:38:25.299Z,1.70
2019-06-08T15:40:51.671Z,1.52
2019-06-08T15:43:18.279Z,1.77
2019-06-08T15:45:48.888Z,1.47
2019-06-08T15:48:14.142Z,1.95
2019-06-08T15:50:42.312Z,1.40
2019-06-08T15:53:08.631Z,1.75
2019-06-08T15:55:35.003Z,1.70
2019-06-08T15:58:01.270Z,1.62
2019-06-08T16:00:29.621Z,1.70
2019-06-08T16:02:55.865Z,2.08
2019-06-08T16:05:23.378Z,1.90
2019-06-08T16:07:50.073Z,1.82
2019-06-08T16:10:16.568Z,1.82
2019-06-08T16:12:43.005Z,1.57
2019-06-08T16:15:09.583Z,1.75
2019-06-08T16:17:36.305Z,1.57
2019-06-08T16:20:04.207Z,1.80
2019-06-08T16:22:31.706Z,1.50
2019-06-08T16:24:58.102Z,1.52
2019-06-08T16:27:25.651Z,1.80
2019-06-08T16:29:51.947Z,1.60
2019-06-08T16:32:18.482Z,1.50
2019-06-08T16:34:44.747Z,1.62
2019-06-08T16:37:11.055Z,1.90
2019-06-08T16:39:37.365Z,2.12
2019-06-08T16:42:03.696Z,3.27
2019-06-08T16:44:30.016Z,2.12
2019-06-08T16:46:57.199Z,2.22
2019-06-08T16:49:29.483Z,1.90
2019-06-08T16:51:55.976Z,2.05
2019-06-08T16:54:22.324Z,2.98
2019-06-08T16:56:48.607Z,1.90
2019-06-08T16:59:14.906Z,6.80
2019-06-08T17:01:41.185Z,6.62
2019-06-08T17:04:07.562Z,2.50
2019-06-08T17:06:35.205Z,2.33
2019-06-08T17:09:01.608Z,6.65
2019-06-08T17:11:27.977Z,2.65
2019-06-08T17:13:54.343Z,1.92
2019-06-08T17:16:21.422Z,2.40
2019-06-08T17:18:47.770Z,2.45
2019-06-08T17:21:14.093Z,2.10
2019-06-08T17:23:40.596Z,2.47
2019-06-08T17:26:06.952Z,1.98
2019-06-08T17:28:33.319Z,2.70
2019-06-08T17:31:00.227Z,2.95
2019-06-08T17:33:26.588Z,2.62
2019-06-08T17:35:53.262Z,2.52
2019-06-08T17:38:19.500Z,2.60
2019-06-08T17:40:45.957Z,2.77
2019-06-08T17:43:12.228Z,2.72
2019-06-08T17:45:38.650Z,2.92
2019-06-08T17:48:05.062Z,2.77
2019-06-08T17:50:32.660Z,2.45
2019-06-08T17:52:59.141Z,2.20
2019-06-08T17:55:25.679Z,2.25
2019-06-08T17:57:53.684Z,2.05
2019-06-08T18:00:20.453Z,2.20
2019-06-08T18:02:48.375Z,2.47
2019-06-08T18:05:17.756Z,2.33
2019-06-08T18:07:44.372Z,1.92
2019-06-08T18:10:12.286Z,2.00
2019-06-08T18:12:40.842Z,2.00
2019-06-08T18:15:07.766Z,2.10
2019-06-08T18:17:39.128Z,2.30
2019-06-08T18:20:07.844Z,2.40
2019-06-08T18:22:34.308Z,2.00
2019-06-08T18:25:00.611Z,2.05
2019-06-08T18:27:27.851Z,2.55
2019-06-08T18:29:54.240Z,2.10
2019-06-08T18:32:20.563Z,2.80
2019-06-08T18:34:48.075Z,2.02
2019-06-08T18:37:17.880Z,1.95
2019-06-08T18:39:44.734Z,1.90
2019-06-08T18:42:11.887Z,2.40
2019-06-08T18:44:40.758Z,2.30
2019-06-08T18:47:07.445Z,2.45
2019-06-08T18:49:35.210Z,2.40
2019-06-08T18:52:01.566Z,2.80
2019-06-08T18:54:28.194Z,2.10
2019-06-08T18:56:54.634Z,2.50
2019-06-08T18:59:21.014Z,2.40
2019-06-08T19:01:48.675Z,2.50
2019-06-08T19:04:16.299Z,2.77
2019-06-08T19:06:43.735Z,2.50
2019-06-08T19:09:12.237Z,2.22
2019-06-08T19:11:39.435Z,2.17
2019-06-08T19:14:07.208Z,2.33
2019-06-08T19:16:33.660Z,2.10
2019-06-08T19:19:02.462Z,2.22
2019-06-08T19:21:29.392Z,2.40
2019-06-08T19:23:55.725Z,2.17
2019-06-08T19:26:24.609Z,2.27
2019-06-08T19:28:54.090Z,2.77
2019-06-08T19:31:19.616Z,2.22
2019-06-08T19:33:49.410Z,2.37
2019-06-08T19:36:14.050Z,2.12
2019-06-08T19:38:41.313Z,2.90
2019-06-08T19:41:08.680Z,2.90
2019-06-08T19:43:35.051Z,2.62
2019-06-08T19:46:02.984Z,2.65
2019-06-08T19:48:31.185Z,2.60
2019-06-08T19:50:58.357Z,2.52
2019-06-08T19:53:24.714Z,2.47
2019-06-08T19:55:53.954Z,2.20
2019-06-08T19:58:18.979Z,2.70
2019-06-08T20:00:48.534Z,2.80
2019-06-08T20:03:17.754Z,3.25
2019-06-08T20:05:45.286Z,2.77
2019-06-08T20:08:12.059Z,2.85
2019-06-08T20:10:38.453Z,3.00
2019-06-08T20:13:07.837Z,3.02
2019-06-08T20:15:34.410Z,2.87
2019-06-08T20:18:00.633Z,2.75
2019-06-08T20:20:27.895Z,2.60
2019-06-08T20:22:55.520Z,2.60
2019-06-08T20:25:23.819Z,2.58
2019-06-08T20:27:51.593Z,2.52
2019-06-08T20:30:19.320Z,3.00
2019-06-08T20:32:47.226Z,2.70
2019-06-08T20:35:14.030Z,2.60
2019-06-08T20:37:41.493Z,2.52
2019-06-08T20:40:13.742Z,2.65
2019-06-08T20:42:37.825Z,2.10
2019-06-08T20:45:08.413Z,2.10
2019-06-08T20:47:36.726Z,2.08
2019-06-08T20:50:04.199Z,2.02
2019-06-08T20:52:30.461Z,2.00
2019-06-08T20:54:58.294Z,1.92
2019-06-08T20:57:25.738Z,2.10
2019-06-08T20:59:54.012Z,1.87
2019-06-08T21:02:20.740Z,2.17
2019-06-08T21:04:50.110Z,2.30
2019-06-08T21:07:17.375Z,2.30
2019-06-08T21:09:44.874Z,2.40
2019-06-08T21:12:11.455Z,1.80
2019-06-08T21:14:37.999Z,2.40
2019-06-08T21:17:07.594Z,2.00
2019-06-08T21:19:34.063Z,1.92
2019-06-08T21:22:00.312Z,1.92
2019-06-08T21:24:28.141Z,1.80
2019-06-08T21:26:56.534Z,1.95
2019-06-08T21:29:26.728Z,2.08
2019-06-08T21:31:55.096Z,1.80
2019-06-08T21:34:21.151Z,2.17
2019-06-08T21:36:49.797Z,1.70
2019-06-08T21:39:17.338Z,1.87
2019-06-08T21:41:43.730Z,1.80
2019-06-08T21:44:10.116Z,1.80
2019-06-08T21:46:38.053Z,1.62
2019-06-08T21:49:04.464Z,1.75
2019-06-08T21:51:30.740Z,1.42
2019-06-08T21:53:59.214Z,1.80
2019-06-08T21:56:27.613Z,1.62
2019-06-08T21:58:54.665Z,1.80
2019-06-08T22:01:23.297Z,1.72
2019-06-08T22:03:49.668Z,1.60
2019-06-08T22:06:17.670Z,1.60
2019-06-08T22:08:43.977Z,2.00
2019-06-08T22:11:10.241Z,1.80
2019-06-08T22:13:37.405Z,1.70
2019-06-08T22:16:04.362Z,1.82
2019-06-08T22:18:30.675Z,1.85
2019-06-08T22:20:59.422Z,1.52
2019-06-08T22:23:25.257Z,1.85
2019-06-08T22:25:52.357Z,1.87
2019-06-08T22:28:21.612Z,1.87
2019-06-08T22:30:48.367Z,2.40
2019-06-08T22:33:17.442Z,1.80
2019-06-08T22:35:43.573Z,1.70
2019-06-08T22:38:09.841Z,1.77
2019-06-08T22:40:37.081Z,1.75
2019-06-08T22:43:03.777Z,1.50
2019-06-08T22:45:30.007Z,1.90
2019-06-08T22:47:58.630Z,1.70
2019-06-08T22:50:24.464Z,1.60
2019-06-08T22:52:50.709Z,1.70
2019-06-08T22:55:18.588Z,1.70
2019-06-08T22:57:45.044Z,1.60
2019-06-08T23:00:17.287Z,1.80
2019-06-08T23:02:40.182Z,1.40
2019-06-08T23:05:09.049Z,1.40
2019-06-08T23:07:37.241Z,1.60
2019-06-08T23:10:08.867Z,1.75
2019-06-08T23:12:37.906Z,1.80
2019-06-08T23:15:07.807Z,1.47
2019-06-08T23:17:34.020Z,1.40
2019-06-08T23:20:01.619Z,1.70
2019-06-08T23:22:28.143Z,1.62
2019-06-08T23:24:55.347Z,1.62
2019-06-08T23:27:21.919Z,2.00
2019-06-08T23:29:48.166Z,1.80
2019-06-08T23:32:14.457Z,1.60
2019-06-08T23:34:40.777Z,1.80
2019-06-08T23:37:12.484Z,1.60
2019-06-08T23:39:37.374Z,1.70
2019-06-08T23:42:03.704Z,1.90
2019-06-08T23:44:30.042Z,1.85
2019-06-08T23:46:58.560Z,1.70
2019-06-08T23:49:24.389Z,1.82
2019-06-08T23:51:50.644Z,1.80
2019-06-08T23:54:18.394Z,1.90
2019-06-08T23:56:47.297Z,1.90
2019-06-08T23:59:13.069Z,2.00
